createdAt,value
2022-09-24T00:01:40.629Z,8.60
2022-09-24T00:04:12.366Z,8.70
2022-09-24T00:06:45.122Z,8.60
2022-09-24T00:09:14.938Z,8.60
2022-09-24T00:11:45.966Z,8.70
2022-09-24T00:14:13.402Z,8.70
2022-09-24T00:16:42.755Z,8.60
2022-09-24T00:19:12.524Z,8.50
2022-09-24T00:21:41.039Z,8.50
2022-09-24T00:24:32.419Z,8.50
2022-09-24T00:27:00.633Z,8.50
2022-09-24T00:29:27.997Z,8.50
2022-09-24T00:31:55.580Z,8.50
2022-09-24T00:34:23.083Z,8.50
2022-09-24T00:36:50.516Z,8.40
2022-09-24T00:39:17.952Z,8.40
2022-09-24T00:41:48.183Z,8.40
2022-09-24T00:44:48.016Z,8.40
2022-09-24T00:47:30.305Z,8.50
2022-09-24T00:50:17.444Z,8.50
2022-09-24T00:52:55.269Z,8.50
2022-09-24T00:55:24.722Z,8.50
2022-09-24T00:57:57.083Z,8.50
2022-09-24T01:00:24.841Z,8.50
2022-09-24T01:02:58.569Z,8.50
2022-09-24T01:05:25.976Z,8.40
2022-09-24T01:07:53.613Z,8.40
2022-09-24T01:10:49.297Z,8.30
2022-09-24T01:13:25.071Z,8.30
2022-09-24T01:16:04.331Z,8.20
2022-09-24T01:18:40.036Z,8.10
2022-09-24T01:21:52.071Z,8.20
2022-09-24T01:24:37.247Z,8.20
2022-09-24T01:27:49.865Z,8.20
2022-09-24T01:30:17.446Z,8.10
2022-09-24T01:33:04.764Z,8.10
2022-09-24T01:35:34.967Z,8.10
2022-09-24T01:38:20.071Z,8.00
2022-09-24T01:40:49.712Z,8.00
2022-09-24T01:43:19.557Z,8.00
2022-09-24T01:45:47.013Z,8.10
2022-09-24T01:48:14.712Z,8.10
2022-09-24T01:51:00.314Z,8.00
2022-09-24T01:53:32.177Z,8.00
2022-09-24T01:56:05.388Z,8.00
2022-09-24T01:58:40.823Z,8.10
2022-09-24T02:01:12.995Z,8.00
2022-09-24T02:03:47.976Z,7.90
2022-09-24T02:06:20.805Z,7.90
2022-09-24T02:08:49.468Z,7.90
2022-09-24T02:11:23.471Z,7.80
2022-09-24T02:14:14.403Z,7.90
2022-09-24T02:16:48.254Z,7.90
2022-09-24T02:19:28.265Z,8.00
2022-09-24T02:21:55.652Z,8.00
2022-09-24T02:24:30.562Z,8.00
2022-09-24T02:26:58.017Z,8.00
2022-09-24T02:29:25.487Z,8.00
2022-09-24T02:31:56.508Z,8.00
2022-09-24T02:34:27.686Z,8.00
2022-09-24T02:36:59.795Z,8.00
2022-09-24T02:39:27.286Z,8.00
2022-09-24T02:41:54.988Z,8.00
2022-09-24T02:44:22.639Z,8.00
2022-09-24T02:46:50.974Z,8.00
2022-09-24T02:49:18.585Z,8.00
2022-09-24T02:51:46.018Z,8.00
2022-09-24T02:54:13.826Z,8.00
2022-09-24T02:56:41.476Z,8.00
2022-09-24T02:59:09.220Z,7.90
2022-09-24T03:01:36.903Z,7.90
2022-09-24T03:04:04.886Z,7.90
2022-09-24T03:06:32.420Z,7.80
2022-09-24T03:09:01.042Z,7.80
2022-09-24T03:11:29.269Z,7.80
2022-09-24T03:13:56.593Z,7.70
2022-09-24T03:16:24.200Z,7.80
2022-09-24T03:18:51.603Z,7.80
2022-09-24T03:21:21.085Z,7.70
2022-09-24T03:23:48.535Z,7.70
2022-09-24T03:26:17.642Z,7.70
2022-09-24T03:28:45.454Z,7.70
2022-09-24T03:31:13.191Z,7.70
2022-09-24T03:33:44.316Z,7.70
2022-09-24T03:36:11.761Z,7.60
2022-09-24T03:38:40.843Z,7.60
2022-09-24T03:41:09.508Z,7.60
2022-09-24T03:43:37.663Z,7.50
2022-09-24T03:46:09.733Z,7.50
2022-09-24T03:48:39.601Z,7.50
2022-09-24T03:51:10.380Z,7.40
2022-09-24T03:53:38.351Z,7.50
2022-09-24T03:56:06.985Z,7.40
2022-09-24T03:58:37.536Z,7.50
2022-09-24T04:01:10.458Z,7.50
2022-09-24T04:03:37.855Z,7.50
2022-09-24T04:06:06.094Z,7.40
2022-09-24T04:08:33.525Z,7.50
2022-09-24T04:11:00.966Z,7.50
2022-09-24T04:13:28.395Z,7.40
2022-09-24T04:15:55.789Z,7.40
2022-09-24T04:18:23.227Z,7.40
2022-09-24T04:20:50.519Z,7.40
2022-09-24T04:23:17.875Z,7.50
2022-09-24T04:25:45.217Z,7.40
2022-09-24T04:28:12.642Z,7.50
2022-09-24T04:30:40.363Z,7.50
2022-09-24T04:33:08.309Z,7.50
2022-09-24T04:35:36.643Z,7.50
2022-09-24T04:38:04.950Z,7.50
2022-09-24T04:40:33.052Z,7.60
2022-09-24T04:43:00.510Z,7.60
2022-09-24T04:45:27.857Z,7.70
2022-09-24T04:47:58.076Z,7.70
2022-09-24T04:50:33.318Z,7.80
2022-09-24T04:53:02.506Z,7.80
2022-09-24T04:55:32.352Z,7.80
2022-09-24T04:57:59.778Z,7.80
2022-09-24T05:00:27.094Z,7.80
2022-09-24T05:03:03.651Z,7.90
2022-09-24T05:05:32.875Z,7.90
2022-09-24T05:08:01.700Z,7.90
2022-09-24T05:10:31.541Z,8.00
2022-09-24T05:12:59.528Z,7.90
2022-09-24T05:15:27.123Z,8.00
2022-09-24T05:17:54.434Z,8.00
2022-09-24T05:20:22.051Z,8.10
2022-09-24T05:22:50.263Z,8.20
2022-09-24T05:25:19.900Z,8.10
2022-09-24T05:27:52.227Z,8.10
2022-09-24T05:30:22.284Z,8.20
2022-09-24T05:32:52.384Z,8.20
2022-09-24T05:35:24.075Z,8.20
2022-09-24T05:37:53.842Z,8.20
2022-09-24T05:40:40.663Z,8.10
2022-09-24T05:43:08.394Z,8.30
2022-09-24T05:45:35.804Z,8.30
2022-09-24T05:48:03.203Z,8.30
2022-09-24T05:50:31.429Z,8.40
2022-09-24T05:52:58.765Z,8.50
2022-09-24T05:55:30.155Z,8.50
2022-09-24T05:58:03.908Z,8.60
2022-09-24T06:00:31.460Z,8.60
2022-09-24T06:03:04.458Z,8.50
2022-09-24T06:05:31.889Z,8.60
2022-09-24T06:07:59.229Z,8.70
2022-09-24T06:10:26.663Z,8.80
2022-09-24T06:12:54.617Z,8.90
2022-09-24T06:15:22.668Z,9.00
2022-09-24T06:17:53.002Z,9.10
2022-09-24T06:20:20.648Z,9.20
2022-09-24T06:22:49.433Z,9.20
2022-09-24T06:25:16.952Z,9.40
2022-09-24T06:27:44.390Z,9.30
2022-09-24T06:30:12.224Z,9.50
2022-09-24T06:32:39.728Z,9.60
2022-09-24T06:35:07.455Z,9.60
2022-09-24T06:37:34.905Z,9.60
2022-09-24T06:40:02.572Z,9.60
2022-09-24T06:42:31.136Z,9.70
2022-09-24T06:44:58.527Z,9.80
2022-09-24T06:47:26.824Z,9.90
2022-09-24T06:49:54.180Z,10.00
2022-09-24T06:52:23.505Z,10.10
2022-09-24T06:54:50.966Z,10.20
2022-09-24T06:57:18.474Z,10.20
2022-09-24T06:59:45.943Z,10.30
2022-09-24T07:02:13.484Z,10.30
2022-09-24T07:04:41.004Z,10.30
2022-09-24T07:07:26.774Z,10.40
2022-09-24T07:09:54.150Z,10.40
2022-09-24T07:12:21.760Z,10.40
2022-09-24T07:14:49.902Z,10.40
2022-09-24T07:17:17.536Z,10.30
2022-09-24T07:19:45.033Z,10.30
2022-09-24T07:22:12.508Z,10.20
2022-09-24T07:24:40.012Z,10.10
2022-09-24T07:27:08.782Z,10.20
2022-09-24T07:29:36.952Z,10.30
2022-09-24T07:32:05.403Z,10.50
2022-09-24T07:34:33.145Z,10.70
2022-09-24T07:37:03.860Z,10.90
2022-09-24T07:39:33.032Z,11.00
2022-09-24T07:42:02.064Z,11.10
2022-09-24T07:44:29.858Z,11.10
2022-09-24T07:46:58.543Z,11.20
2022-09-24T07:49:25.984Z,11.30
2022-09-24T07:51:54.311Z,11.40
2022-09-24T07:54:21.617Z,11.40
2022-09-24T07:56:48.921Z,11.50
2022-09-24T07:59:16.294Z,11.50
2022-09-24T08:01:43.739Z,11.60
2022-09-24T08:04:11.331Z,11.60
2022-09-24T08:06:42.458Z,11.80
2022-09-24T08:09:12.595Z,11.90
2022-09-24T08:11:40.041Z,12.10
2022-09-24T08:14:07.426Z,12.20
2022-09-24T08:16:35.007Z,12.20
2022-09-24T08:19:02.388Z,12.30
2022-09-24T08:21:29.827Z,12.40
2022-09-24T08:23:57.178Z,12.30
2022-09-24T08:26:24.460Z,12.40
2022-09-24T08:28:51.936Z,12.40
2022-09-24T08:31:20.048Z,12.40
2022-09-24T08:33:50.948Z,12.40
2022-09-24T08:36:18.772Z,12.40
2022-09-24T08:38:46.099Z,12.40
2022-09-24T08:41:13.409Z,12.60
2022-09-24T08:44:07.865Z,12.90
2022-09-24T08:46:53.636Z,13.30
2022-09-24T08:49:31.397Z,13.30
2022-09-24T08:52:15.154Z,13.20
2022-09-24T08:54:45.455Z,13.10
2022-09-24T08:57:16.099Z,13.00
2022-09-24T08:59:50.254Z,13.00
2022-09-24T09:02:38.681Z,12.80
2022-09-24T09:05:47.259Z,12.90
2022-09-24T09:09:07.139Z,13.10
2022-09-24T09:11:38.061Z,13.30
2022-09-24T09:14:22.694Z,13.10
2022-09-24T09:16:55.413Z,13.10
2022-09-24T09:19:28.853Z,13.10
2022-09-24T09:22:16.860Z,13.00
2022-09-24T09:24:49.938Z,12.90
2022-09-24T09:27:19.018Z,13.00
2022-09-24T09:29:53.384Z,13.00
2022-09-24T09:32:48.235Z,13.20
2022-09-24T09:35:22.090Z,13.30
2022-09-24T09:38:00.281Z,13.10
2022-09-24T09:40:39.039Z,12.90
2022-09-24T09:43:11.445Z,12.80
2022-09-24T09:46:02.975Z,12.60
2022-09-24T09:48:51.190Z,12.40
2022-09-24T09:51:22.523Z,12.30
2022-09-24T09:54:02.984Z,12.30
2022-09-24T09:56:43.833Z,12.50
2022-09-24T09:59:11.132Z,12.70
2022-09-24T10:01:41.583Z,12.90
2022-09-24T10:04:26.743Z,12.90
2022-09-24T10:07:13.241Z,12.90
2022-09-24T10:09:42.366Z,12.80
2022-09-24T10:12:16.520Z,12.60
2022-09-24T10:14:45.176Z,12.70
2022-09-24T10:17:18.944Z,12.80
2022-09-24T10:19:47.978Z,12.80
2022-09-24T10:22:23.515Z,12.80
2022-09-24T10:24:51.716Z,12.70
2022-09-24T10:27:36.425Z,12.70
2022-09-24T10:30:33.853Z,12.80
2022-09-24T10:33:08.791Z,12.90
2022-09-24T10:35:38.791Z,13.20
2022-09-24T10:38:21.447Z,13.40
2022-09-24T10:40:48.925Z,13.70
2022-09-24T10:43:18.992Z,13.60
2022-09-24T10:45:52.290Z,13.60
2022-09-24T10:48:42.797Z,13.60
2022-09-24T10:52:08.790Z,13.50
2022-09-24T10:54:49.898Z,13.20
2022-09-24T10:57:25.612Z,13.20
2022-09-24T11:00:11.034Z,13.00
2022-09-24T11:02:50.264Z,12.80
2022-09-24T11:05:26.467Z,12.80
2022-09-24T11:08:17.607Z,12.90
2022-09-24T11:11:17.915Z,13.10
2022-09-24T11:13:56.014Z,13.20
2022-09-24T11:16:29.021Z,13.30
2022-09-24T11:19:20.260Z,13.30
2022-09-24T11:21:56.027Z,13.20
2022-09-24T11:24:41.721Z,13.30
2022-09-24T11:27:33.670Z,13.00
2022-09-24T11:30:13.284Z,14.30
2022-09-24T11:33:24.639Z,16.20
2022-09-24T11:36:21.093Z,17.70
2022-09-24T11:39:15.065Z,16.70
2022-09-24T11:41:53.049Z,16.40
2022-09-24T11:44:29.590Z,17.30
2022-09-24T11:47:16.862Z,18.70
2022-09-24T11:49:53.267Z,18.10
2022-09-24T11:52:43.756Z,18.20
2022-09-24T11:55:34.848Z,18.40
2022-09-24T11:58:08.095Z,16.40
2022-09-24T12:00:40.713Z,15.90
2022-09-24T12:03:40.245Z,16.00
2022-09-24T12:06:16.030Z,18.00
2022-09-24T12:08:53.566Z,18.70
2022-09-24T12:11:53.382Z,18.20
2022-09-24T12:14:25.751Z,16.80
2022-09-24T12:17:01.249Z,15.70
2022-09-24T12:19:50.359Z,15.20
2022-09-24T12:22:19.325Z,14.80
2022-09-24T12:24:52.636Z,15.00
2022-09-24T12:27:28.268Z,15.50
2022-09-24T12:30:37.969Z,17.90
2022-09-24T12:33:10.808Z,20.50
2022-09-24T12:35:47.511Z,22.40
2022-09-24T12:38:19.982Z,21.80
2022-09-24T12:41:05.584Z,20.40
2022-09-24T12:43:40.943Z,18.40
2022-09-24T12:46:17.765Z,17.00
2022-09-24T12:48:46.585Z,16.20
2022-09-24T12:51:14.637Z,15.40
2022-09-24T12:53:44.102Z,15.00
2022-09-24T12:56:12.059Z,14.70
2022-09-24T12:58:44.935Z,14.60
2022-09-24T13:01:24.528Z,14.40
2022-09-24T13:04:21.687Z,14.40
2022-09-24T13:06:50.123Z,14.30
2022-09-24T13:09:38.362Z,14.30
2022-09-24T13:12:24.422Z,14.30
2022-09-24T13:15:02.776Z,14.20
2022-09-24T13:17:34.854Z,14.30
2022-09-24T13:20:28.372Z,14.40
2022-09-24T13:23:12.261Z,14.30
2022-09-24T13:25:39.659Z,14.30
2022-09-24T13:28:37.931Z,14.20
2022-09-24T13:31:29.278Z,14.10
2022-09-24T13:34:04.779Z,14.10
2022-09-24T13:36:44.622Z,14.00
2022-09-24T13:39:24.523Z,13.70
2022-09-24T13:42:01.033Z,13.50
2022-09-24T13:44:31.593Z,13.30
2022-09-24T13:47:21.397Z,13.20
2022-09-24T13:49:51.776Z,13.20
2022-09-24T13:52:45.767Z,13.20
2022-09-24T13:55:21.807Z,13.20
2022-09-24T13:57:49.724Z,13.30
2022-09-24T14:00:24.606Z,13.30
2022-09-24T14:03:05.986Z,13.30
2022-09-24T14:05:37.586Z,13.20
2022-09-24T14:08:08.895Z,13.20
2022-09-24T14:10:36.917Z,13.20
2022-09-24T14:13:21.528Z,13.30
2022-09-24T14:15:59.791Z,13.40
2022-09-24T14:18:28.957Z,13.50
2022-09-24T14:21:10.621Z,13.70
2022-09-24T14:24:04.107Z,14.10
2022-09-24T14:26:52.119Z,14.20
2022-09-24T14:29:27.994Z,14.40
2022-09-24T14:32:04.180Z,14.50
2022-09-24T14:34:40.673Z,14.50
2022-09-24T14:37:12.465Z,14.60
2022-09-24T14:39:43.279Z,14.60
2022-09-24T14:42:38.991Z,14.50
2022-09-24T14:45:08.818Z,14.30
2022-09-24T14:47:37.358Z,14.20
2022-09-24T14:50:25.960Z,14.10
2022-09-24T14:52:57.204Z,14.10
2022-09-24T14:55:40.632Z,13.90
2022-09-24T14:58:26.223Z,13.70
2022-09-24T15:01:00.634Z,13.50
2022-09-24T15:03:52.319Z,13.40
2022-09-24T15:06:24.649Z,13.30
2022-09-24T15:09:03.891Z,13.20
2022-09-24T15:11:34.584Z,13.10
2022-09-24T15:14:19.332Z,13.00
2022-09-24T15:16:47.767Z,13.00
2022-09-24T15:19:22.452Z,13.30
2022-09-24T15:21:52.799Z,14.30
2022-09-24T15:24:21.307Z,14.60
2022-09-24T15:27:00.966Z,14.90
2022-09-24T15:29:28.505Z,15.10
2022-09-24T15:31:57.725Z,14.80
2022-09-24T15:34:25.727Z,14.70
2022-09-24T15:36:55.844Z,15.10
2022-09-24T15:39:26.364Z,15.70
2022-09-24T15:41:54.120Z,16.30
2022-09-24T15:44:26.137Z,16.50
2022-09-24T15:46:55.986Z,16.40
2022-09-24T15:49:23.841Z,16.00
2022-09-24T15:52:06.159Z,15.10
2022-09-24T15:54:33.595Z,14.70
2022-09-24T15:57:01.456Z,14.20
2022-09-24T15:59:29.021Z,13.70
2022-09-24T16:02:01.359Z,13.40
2022-09-24T16:04:29.322Z,13.10
2022-09-24T16:06:56.714Z,13.00
2022-09-24T16:09:24.145Z,12.70
2022-09-24T16:11:51.580Z,12.60
2022-09-24T16:14:18.985Z,12.50
2022-09-24T16:16:46.321Z,12.40
2022-09-24T16:19:13.852Z,12.30
2022-09-24T16:21:41.234Z,12.20
2022-09-24T16:24:08.620Z,12.00
2022-09-24T16:26:37.437Z,11.90
2022-09-24T16:29:06.814Z,11.70
2022-09-24T16:31:34.314Z,11.60
2022-09-24T16:34:02.248Z,11.50
2022-09-24T16:36:29.615Z,11.40
2022-09-24T16:38:57.853Z,11.30
2022-09-24T16:41:25.268Z,11.20
2022-09-24T16:43:57.004Z,11.20
2022-09-24T16:46:24.407Z,11.10
2022-09-24T16:48:51.976Z,11.00
2022-09-24T16:51:19.853Z,11.00
2022-09-24T16:53:48.893Z,10.80
2022-09-24T16:56:17.634Z,10.70
2022-09-24T16:58:46.957Z,10.70
2022-09-24T17:01:17.041Z,10.60
2022-09-24T17:03:44.679Z,10.60
2022-09-24T17:06:38.423Z,10.50
2022-09-24T17:09:24.196Z,10.40
2022-09-24T17:11:51.602Z,10.50
2022-09-24T17:14:18.977Z,10.40
2022-09-24T17:16:46.626Z,10.30
2022-09-24T17:19:15.350Z,10.20
2022-09-24T17:21:46.113Z,10.20
2022-09-24T17:24:16.455Z,10.10
2022-09-24T17:27:07.184Z,10.00
2022-09-24T17:29:34.692Z,9.90
2022-09-24T17:32:02.327Z,9.80
2022-09-24T17:34:29.761Z,9.70
2022-09-24T17:36:59.617Z,9.70
2022-09-24T17:39:27.887Z,9.60
2022-09-24T17:41:55.308Z,9.60
2022-09-24T17:44:22.738Z,9.60
2022-09-24T17:46:50.281Z,9.50
2022-09-24T17:49:17.814Z,9.50
2022-09-24T17:51:46.563Z,9.50
2022-09-24T17:54:15.941Z,9.50
2022-09-24T17:56:43.423Z,9.50
2022-09-24T17:59:12.771Z,9.40
2022-09-24T18:01:42.106Z,9.40
2022-09-24T18:04:18.397Z,9.30
2022-09-24T18:06:47.598Z,9.20
2022-09-24T18:09:16.203Z,9.20
2022-09-24T18:11:47.103Z,9.20
2022-09-24T18:14:20.720Z,9.10
2022-09-24T18:16:49.505Z,9.10
2022-09-24T18:19:17.800Z,9.00
2022-09-24T18:21:46.326Z,9.10
2022-09-24T18:24:14.702Z,9.00
2022-09-24T18:26:42.622Z,9.00
2022-09-24T18:29:15.962Z,9.00
2022-09-24T18:31:43.919Z,9.00
2022-09-24T18:34:15.990Z,8.90
2022-09-24T18:36:45.216Z,8.90
2022-09-24T18:39:21.924Z,8.90
2022-09-24T18:41:51.549Z,8.90
2022-09-24T18:44:19.846Z,8.80
2022-09-24T18:46:47.517Z,8.90
2022-09-24T18:49:14.934Z,8.80
2022-09-24T18:51:42.370Z,8.70
2022-09-24T18:54:14.666Z,8.70
2022-09-24T18:56:43.626Z,8.60
2022-09-24T18:59:19.774Z,8.60
2022-09-24T19:01:50.851Z,8.50
2022-09-24T19:04:18.814Z,8.50
2022-09-24T19:06:48.317Z,8.50
2022-09-24T19:09:17.590Z,8.40
2022-09-24T19:11:45.743Z,8.40
2022-09-24T19:14:18.100Z,8.40
2022-09-24T19:16:46.289Z,8.40
2022-09-24T19:19:13.684Z,8.40
2022-09-24T19:21:42.333Z,8.50
2022-09-24T19:24:10.082Z,8.50
2022-09-24T19:26:37.913Z,8.50
2022-09-24T19:29:05.489Z,8.40
2022-09-24T19:31:41.083Z,8.40
2022-09-24T19:34:12.084Z,8.40
2022-09-24T19:36:44.275Z,8.30
2022-09-24T19:39:14.410Z,8.30
2022-09-24T19:41:42.870Z,8.30
2022-09-24T19:44:11.709Z,8.30
2022-09-24T19:46:39.503Z,8.10
2022-09-24T19:49:07.457Z,8.10
2022-09-24T19:51:35.884Z,8.00
2022-09-24T19:54:08.356Z,7.90
2022-09-24T19:56:36.998Z,7.80
2022-09-24T19:59:04.744Z,7.80
2022-09-24T20:01:33.597Z,7.80
2022-09-24T20:04:04.825Z,7.80
2022-09-24T20:06:34.007Z,7.80
2022-09-24T20:09:01.578Z,7.80
2022-09-24T20:11:32.764Z,7.80
2022-09-24T20:14:01.532Z,7.80
2022-09-24T20:16:32.754Z,7.90
2022-09-24T20:19:01.822Z,7.90
2022-09-24T20:21:34.984Z,7.90
2022-09-24T20:24:03.974Z,8.00
2022-09-24T20:26:50.190Z,8.00
2022-09-24T20:29:22.792Z,8.00
2022-09-24T20:31:53.218Z,8.00
2022-09-24T20:34:23.902Z,8.10
2022-09-24T20:36:52.306Z,8.20
2022-09-24T20:39:20.858Z,8.20
2022-09-24T20:41:49.624Z,8.20
2022-09-24T20:44:17.661Z,8.20
2022-09-24T20:46:45.161Z,8.10
2022-09-24T20:49:23.105Z,8.10
2022-09-24T20:51:57.522Z,8.00
2022-09-24T20:54:26.389Z,8.00
2022-09-24T20:56:53.833Z,8.00
2022-09-24T20:59:21.145Z,8.00
2022-09-24T21:01:49.619Z,8.00
2022-09-24T21:04:20.113Z,8.00
2022-09-24T21:06:48.686Z,8.00
2022-09-24T21:09:17.222Z,7.90
2022-09-24T21:11:44.828Z,7.90
2022-09-24T21:14:12.481Z,7.90
2022-09-24T21:16:40.660Z,7.90
2022-09-24T21:19:08.189Z,7.80
2022-09-24T21:21:38.453Z,7.80
2022-09-24T21:24:09.617Z,7.80
2022-09-24T21:26:37.697Z,7.80
2022-09-24T21:29:09.657Z,7.80
2022-09-24T21:31:39.171Z,7.80
2022-09-24T21:34:08.347Z,7.80
2022-09-24T21:36:43.768Z,7.80
2022-09-24T21:39:16.407Z,7.80
2022-09-24T21:41:45.642Z,7.80
2022-09-24T21:44:14.583Z,7.70
2022-09-24T21:46:43.981Z,7.70
2022-09-24T21:49:12.529Z,7.70
2022-09-24T21:51:40.733Z,7.70
2022-09-24T21:54:12.453Z,7.80
2022-09-24T21:56:40.228Z,7.80
2022-09-24T21:59:27.650Z,7.90
2022-09-24T22:01:55.512Z,7.90
2022-09-24T22:04:23.102Z,7.90
2022-09-24T22:06:51.219Z,8.00
2022-09-24T22:09:18.938Z,8.00
2022-09-24T22:11:47.208Z,8.00
2022-09-24T22:14:14.918Z,8.00
2022-09-24T22:16:42.392Z,8.10
2022-09-24T22:19:09.866Z,8.10
2022-09-24T22:21:37.249Z,8.10
2022-09-24T22:24:05.564Z,8.20
2022-09-24T22:26:33.011Z,8.20
2022-09-24T22:29:01.164Z,8.30
2022-09-24T22:31:28.636Z,8.30
2022-09-24T22:34:14.819Z,8.30
2022-09-24T22:36:42.327Z,8.20
2022-09-24T22:39:09.923Z,8.20
2022-09-24T22:41:43.019Z,8.10
2022-09-24T22:44:12.111Z,8.10
2022-09-24T22:46:41.871Z,8.00
2022-09-24T22:49:10.991Z,7.90
2022-09-24T22:51:39.511Z,7.90
2022-09-24T22:54:08.959Z,7.80
2022-09-24T22:56:36.706Z,7.80
2022-09-24T22:59:04.936Z,7.70
2022-09-24T23:01:41.359Z,7.70
2022-09-24T23:04:10.599Z,7.70
2022-09-24T23:06:38.101Z,7.70
2022-09-24T23:09:05.670Z,7.70
2022-09-24T23:11:35.369Z,7.70
2022-09-24T23:14:05.674Z,7.70
2022-09-24T23:16:36.150Z,7.60
2022-09-24T23:19:06.831Z,7.60
2022-09-24T23:21:34.925Z,7.60
2022-09-24T23:24:05.666Z,7.60
2022-09-24T23:26:33.359Z,7.60
2022-09-24T23:29:00.816Z,7.60
2022-09-24T23:31:31.738Z,7.50
2022-09-24T23:34:01.206Z,7.50
2022-09-24T23:36:33.523Z,7.50
2022-09-24T23:39:01.664Z,7.50
2022-09-24T23:41:31.020Z,7.50
2022-09-24T23:43:59.248Z,7.50
2022-09-24T23:46:27.432Z,7.50
2022-09-24T23:48:55.899Z,7.50
2022-09-24T23:51:23.778Z,7.50
2022-09-24T23:53:51.996Z,7.50
2022-09-24T23:56:20.074Z,7.50
2022-09-24T23:58:47.656Z,7.60
